Kenaston, Canada
Current Conditions -  °F | °C
As of 2:00 PM on Saturday 25 Oct 2014 (Local Time) from CYXE Reporting Station
Overcast Overcast  
Wind Chill: 48°   Ceiling: 25000
Heat Index: 48°   Visibility: 15mi
Dew Point: 28°   Wind: 0mph
Humidity: 46%   Direction: NA
Pressure: 30.02"   Gusts: NA
Location:  51.5°N, 106.28°W
Report Text: CYXE 252000Z 00000KT 15SM SCT160 OVC250 09/M02 A3002 RMK AC3CI5 SLP188
Loading
Personal Weather Stations






























Interactive Weather Map
Tropical Storm Tracking
New forecast layout! Learn more

10-Day Weather Forecast

Advertisements
Track Severe Weather on mobile